Time;durP1;ratioP1;P1;durP2;ratioP2;P2;SDS_P1;SDS_P2;PMS_P1;PMS_P2;Temp;Humidity;BMP_temperature;BMP_pressure;BME280_temperature;BME280_humidity;BME280_pressure;Samples;Min_cycle;Max_cycle;Signal;HPM_P1;HPM_P2
2022/11/20 00:00:28;;;;;;;90.20;52.13;;;;;;;-4.46;98.53;99319.25;5036118;28;20106;-77
2022/11/20 00:02:53;;;;;;;89.32;50.33;;;;;;;-4.56;98.47;99299.69;5053543;28;20021;-77
2022/11/20 00:05:19;;;;;;;96.80;53.13;;;;;;;-4.52;98.84;99304.78;5053816;28;20032;-77
2022/11/20 00:07:44;;;;;;;99.97;55.42;;;;;;;-4.61;98.66;99292.00;5053680;28;20036;-77
2022/11/20 00:10:10;;;;;;;106.65;55.13;;;;;;;-4.65;98.48;99277.59;5053839;28;20030;-77
2022/11/20 00:12:35;;;;;;;103.30;55.30;;;;;;;-4.62;98.61;99294.56;5053802;28;20021;-77
2022/11/20 00:15:00;;;;;;;101.38;56.22;;;;;;;-4.66;98.68;99291.13;5053429;28;20021;-77
2022/11/20 00:17:26;;;;;;;109.50;59.95;;;;;;;-4.63;99.06;99286.09;5052757;28;20468;-77
2022/11/20 00:19:51;;;;;;;131.10;71.35;;;;;;;-4.71;99.24;99289.41;5053252;28;20021;-77
2022/11/20 00:22:16;;;;;;;127.97;70.95;;;;;;;-4.74;99.59;99272.44;5035727;28;20041;-77
2022/11/20 00:24:42;;;;;;;122.80;70.15;;;;;;;-4.72;99.79;99285.97;5053336;28;20079;-77
2022/11/20 00:27:07;;;;;;;127.85;72.63;;;;;;;-4.68;99.30;99295.34;5053440;28;20032;-77
2022/11/20 00:29:32;;;;;;;106.15;62.75;;;;;;;-4.72;99.53;99293.59;5053202;28;20460;-77
2022/11/20 00:31:58;;;;;;;110.20;61.42;;;;;;;-4.66;99.50;99306.38;5053072;28;20479;-77
2022/11/20 00:34:23;;;;;;;84.22;50.72;;;;;;;-4.66;99.43;99305.53;5053067;28;20552;-77
2022/11/20 00:36:48;;;;;;;111.18;66.28;;;;;;;-4.68;99.61;99309.72;5053077;28;20452;-77
2022/11/20 00:39:14;;;;;;;100.22;56.03;;;;;;;-4.79;99.47;99297.78;5053332;28;20526;-77
2022/11/20 00:41:39;;;;;;;83.28;46.88;;;;;;;-4.79;99.25;99313.03;5053132;28;20427;-77
2022/11/20 00:44:04;;;;;;;81.63;50.33;;;;;;;-4.80;99.04;99315.56;5052911;28;20433;-77
2022/11/20 00:46:30;;;;;;;80.85;49.38;;;;;;;-4.88;99.28;99307.03;5053051;28;20021;-77
2022/11/20 00:48:55;;;;;;;88.32;47.60;;;;;;;-4.87;99.59;99313.81;5052702;28;20036;-77
2022/11/20 00:51:23;;;;;;;85.40;47.05;;;;;;;-4.91;99.14;99318.00;5053025;28;20025;-77
2022/11/20 00:53:49;;;;;;;87.43;46.92;;;;;;;-5.05;99.32;99305.16;5052828;28;20182;-77
2022/11/20 00:56:16;;;;;;;85.70;45.85;;;;;;;-4.94;99.53;99320.50;5052873;28;20099;-77
2022/11/20 00:58:43;;;;;;;86.72;46.67;;;;;;;-4.94;99.98;99325.56;5052644;28;20025;-77
2022/11/20 01:01:20;;;;;;;91.07;48.72;;;;;;;-4.95;100.00;99331.50;5052678;28;20071;-77
2022/11/20 01:03:48;;;;;;;86.65;50.95;;;;;;;-4.96;100.00;99327.25;5052722;28;20025;-77
2022/11/20 01:06:19;;;;;;;86.10;49.55;;;;;;;-5.05;99.79;99312.78;5052935;28;20028;-77
2022/11/20 01:08:45;;;;;;;77.20;45.10;;;;;;;-5.06;100.00;99313.59;5052641;28;20021;-77
2022/11/20 01:11:13;;;;;;;81.30;46.65;;;;;;;-4.95;100.00;99335.72;5052710;28;20020;-77
2022/11/20 01:13:39;;;;;;;82.03;44.78;;;;;;;-4.95;100.00;99340.81;5052547;28;20083;-77
2022/11/20 01:16:13;;;;;;;70.38;40.20;;;;;;;-4.99;100.00;99324.69;5052073;28;20071;-77
2022/11/20 01:18:41;;;;;;;69.22;40.03;;;;;;;-5.08;100.00;99314.44;5052915;28;20464;-77
2022/11/20 01:21:10;;;;;;;77.20;42.00;;;;;;;-4.95;100.00;99328.09;5052309;28;20028;-77
2022/11/20 01:23:38;;;;;;;76.82;42.75;;;;;;;-5.02;100.00;99317.88;5052343;28;20028;-77
2022/11/20 01:26:06;;;;;;;78.07;44.83;;;;;;;-4.94;100.00;99325.56;5052075;28;20107;-77
2022/11/20 01:28:32;;;;;;;76.38;41.72;;;;;;;-4.98;100.00;99312.84;5051693;28;20460;-77
2022/11/20 01:30:58;;;;;;;74.03;42.38;;;;;;;-4.90;100.00;99323.91;5051688;28;20025;-77
2022/11/20 01:33:24;;;;;;;75.43;42.90;;;;;;;-4.96;100.00;99311.19;5052397;28;20017;-77
2022/11/20 01:35:49;;;;;;;70.53;40.78;;;;;;;-4.86;100.00;99320.56;5051753;28;20120;-77
2022/11/20 01:38:16;;;;;;;72.32;40.65;;;;;;;-4.85;100.00;99315.50;5052264;28;20116;-77
2022/11/20 01:40:41;;;;;;;69.97;40.45;;;;;;;-4.84;100.00;99312.16;5052103;28;20500;-77
2022/11/20 01:43:21;;;;;;;73.95;42.78;;;;;;;-4.87;100.00;99296.88;5051674;28;20052;-77
2022/11/20 01:45:55;;;;;;;69.90;41.90;;;;;;;-4.75;100.00;99308.00;5052025;28;20024;-77
2022/11/20 01:48:23;;;;;;;80.38;43.38;;;;;;;-4.75;100.00;99300.38;5052417;28;20050;-77
2022/11/20 01:50:49;;;;;;;78.28;42.78;;;;;;;-4.68;100.00;99302.94;5051753;28;20029;-77
2022/11/20 01:53:19;;;;;;;81.32;46.53;;;;;;;-4.60;100.00;99308.09;5051862;28;20017;-77
2022/11/20 01:55:51;;;;;;;77.28;45.72;;;;;;;-4.62;100.00;99292.88;5051951;28;20099;-77
2022/11/20 01:58:19;;;;;;;67.38;42.08;;;;;;;-4.55;100.00;99297.16;5051881;28;20031;-77
2022/11/20 02:00:45;;;;;;;65.25;37.65;;;;;;;-4.52;99.99;99301.41;5051736;28;20044;-77
2022/11/20 02:03:15;;;;;;;62.92;36.10;;;;;;;-4.50;99.89;99294.66;5064195;28;20025;-77
2022/11/20 02:05:50;;;;;;;66.93;35.73;;;;;;;-4.46;100.00;99298.09;5071917;28;20063;-77
2022/11/20 02:08:17;;;;;;;65.65;36.58;;;;;;;-4.54;99.70;99286.16;5071764;28;20714;-77
2022/11/20 02:10:43;;;;;;;59.78;34.83;;;;;;;-4.54;99.86;99295.47;5071830;28;20017;-77
2022/11/20 02:15:53;;;;;;;68.05;37.17;;;;;;;-4.50;99.72;99309.91;5071796;28;20116;-77
2022/11/20 02:18:20;;;;;;;67.45;39.17;;;;;;;-4.60;99.71;99298.78;5071818;28;20111;-77
2022/11/20 02:20:48;;;;;;;75.55;38.58;;;;;;;-4.69;99.59;99297.88;5071675;28;20071;-77
2022/11/20 02:23:40;;;;;;;70.75;39.22;;;;;;;-4.59;99.51;99317.47;5071633;28;20452;-77
2022/11/20 02:26:11;;;;;;;82.70;44.00;;;;;;;-4.66;99.65;99321.63;5071656;28;20458;-77
2022/11/20 02:28:37;;;;;;;78.00;43.67;;;;;;;-4.72;99.65;99308.00;5071671;28;20031;-77
2022/11/20 02:31:02;;;;;;;74.78;41.97;;;;;;;-4.75;99.65;99306.31;5071263;28;20012;-77
2022/11/20 02:33:27;;;;;;;84.15;44.83;;;;;;;-4.79;99.78;99297.78;5071649;28;20432;-77
2022/11/20 02:35:53;;;;;;;80.05;43.22;;;;;;;-4.74;100.00;99305.44;5071241;28;20044;-77
2022/11/20 02:38:19;;;;;;;100.20;52.78;;;;;;;-4.73;100.00;99306.31;5071398;28;20020;-77
2022/11/20 02:40:44;;;;;;;132.10;67.30;;;;;;;-4.81;100.00;99298.59;5072920;28;20036;-77
2022/11/20 02:43:10;;;;;;;124.20;64.43;;;;;;;-4.79;100.00;99300.34;5075201;28;20020;-77
2022/11/20 02:45:35;;;;;;;193.25;88.75;;;;;;;-4.81;100.00;99306.22;5075311;28;20112;-77
2022/11/20 02:48:00;;;;;;;111.35;57.00;;;;;;;-4.84;100.00;99301.13;5075418;28;20032;-77
2022/11/20 02:50:26;;;;;;;103.75;53.40;;;;;;;-4.94;100.00;99300.19;5075383;28;20457;-77
2022/11/20 02:52:51;;;;;;;96.30;50.08;;;;;;;-4.82;100.00;99315.53;5075398;28;20016;-77
2022/11/20 02:55:16;;;;;;;156.85;72.45;;;;;;;-4.87;99.86;99311.25;5075143;28;20345;-77
2022/11/20 02:57:42;;;;;;;157.82;75.90;;;;;;;-4.90;100.00;99318.84;5075116;28;20103;-77
2022/11/20 03:00:08;;;;;;;130.65;65.97;;;;;;;-4.98;100.00;99311.13;5074689;28;20020;-77
2022/11/20 03:02:33;;;;;;;133.63;67.72;;;;;;;-5.00;99.93;99317.91;5075212;28;20371;-77
2022/11/20 03:04:59;;;;;;;92.47;50.72;;;;;;;-5.09;99.98;99308.50;5074896;28;20055;-77
2022/11/20 03:07:24;;;;;;;88.20;44.70;;;;;;;-5.04;100.00;99311.09;5075077;28;20032;-77
2022/11/20 03:09:50;;;;;;;109.43;56.22;;;;;;;-5.08;100.00;99300.03;5074620;28;20017;-77
2022/11/20 03:12:15;;;;;;;99.90;53.78;;;;;;;-5.10;100.00;99304.28;5074889;28;20025;-77
2022/11/20 03:14:40;;;;;;;152.88;79.57;;;;;;;-5.14;100.00;99307.59;5074755;28;20024;-77
2022/11/20 03:17:06;;;;;;;216.48;108.85;;;;;;;-5.07;100.00;99313.59;5074781;28;20016;-77
2022/11/20 03:19:31;;;;;;;149.07;79.72;;;;;;;-5.12;100.00;99300.00;5075129;28;20027;-77
2022/11/20 03:21:56;;;;;;;112.00;60.97;;;;;;;-5.08;100.00;99315.28;5074558;28;20427;-77
2022/11/20 03:24:22;;;;;;;86.97;44.75;;;;;;;-5.16;100.00;99299.09;5074725;28;20046;-77
2022/11/20 03:26:47;;;;;;;118.25;62.72;;;;;;;-5.10;100.00;99306.81;5074568;28;20060;-76
2022/11/20 03:29:12;;;;;;;104.60;56.97;;;;;;;-5.12;100.00;99302.53;5074222;28;20372;-77
2022/11/20 03:31:40;;;;;;;100.85;53.97;;;;;;;-5.19;100.00;99293.13;5074550;28;20444;-77
2022/11/20 03:34:06;;;;;;;80.72;45.40;;;;;;;-5.14;100.00;99306.72;5074390;28;20425;-77
2022/11/20 03:36:33;;;;;;;83.30;45.13;;;;;;;-5.12;100.00;99310.16;5074789;28;20364;-77
2022/11/20 03:38:58;;;;;;;94.68;49.08;;;;;;;-5.19;100.00;99299.06;5074240;28;20041;-77
2022/11/20 03:41:28;;;;;;;89.20;48.03;;;;;;;-5.14;100.00;99304.19;5056397;28;20020;-77
2022/11/20 03:44:00;;;;;;;84.05;46.72;;;;;;;-5.19;100.00;99298.22;5074007;28;20469;-77
2022/11/20 03:46:27;;;;;;;84.18;46.00;;;;;;;-5.19;100.00;99305.84;5074359;28;20027;-77
2022/11/20 03:48:53;;;;;;;81.68;44.80;;;;;;;-5.28;100.00;99296.44;5074135;28;20029;-77
2022/11/20 03:51:26;;;;;;;83.60;46.60;;;;;;;-5.26;100.00;99294.78;5074007;28;20031;-77
2022/11/20 03:53:54;;;;;;;81.15;45.55;;;;;;;-5.22;100.00;99309.22;5073483;28;20367;-77
2022/11/20 03:56:23;;;;;;;85.00;47.53;;;;;;;-5.23;100.00;99306.63;5073871;28;20523;-77
2022/11/20 03:58:49;;;;;;;110.35;56.67;;;;;;;-5.32;100.00;99292.16;5074118;28;20031;-77
2022/11/20 04:01:19;;;;;;;98.63;52.95;;;;;;;-5.33;100.00;99298.06;5074189;28;20024;-77
2022/11/20 04:03:45;;;;;;;117.05;60.38;;;;;;;-5.31;100.00;99307.44;5074094;28;20049;-76
2022/11/20 04:06:16;;;;;;;83.78;44.97;;;;;;;-5.38;100.00;99298.03;5073758;28;20044;-76
2022/11/20 04:08:41;;;;;;;;;;;;;;;-5.30;100.00;99306.59;5074258;28;20099;-76
2022/11/20 04:11:13;;;;;;;75.35;42.22;;;;;;;-5.33;100.00;99310.75;5073491;28;19991;-77
2022/11/20 04:13:39;;;;;;;95.18;48.88;;;;;;;-5.43;100.00;99304.75;5073789;28;20024;-76
2022/11/20 04:16:06;;;;;;;103.30;54.65;;;;;;;-5.43;100.00;99307.28;5073519;28;20098;-77
2022/11/20 04:18:32;;;;;;;100.07;55.83;;;;;;;-5.43;100.00;99304.75;5055774;28;20058;-77
2022/11/20 04:20:58;;;;;;;93.72;52.75;;;;;;;-5.45;100.00;99313.16;5073351;28;20063;-76
2022/11/20 04:23:23;;;;;;;90.00;51.63;;;;;;;-5.46;100.00;99304.69;5073427;28;20162;-77
2022/11/20 04:25:49;;;;;;;91.63;49.22;;;;;;;-5.52;100.00;99295.34;5073439;28;20516;-77
2022/11/20 04:28:14;;;;;;;85.35;48.47;;;;;;;-5.48;100.00;99305.50;5073411;28;20029;-77
2022/11/20 04:30:40;;;;;;;98.95;53.80;;;;;;;-5.52;100.00;99310.56;5073252;28;20372;-76
2022/11/20 04:33:05;;;;;;;93.68;49.58;;;;;;;-5.58;100.00;99299.47;5073217;28;20047;-76
2022/11/20 04:35:34;;;;;;;87.30;46.83;;;;;;;-5.74;100.00;99278.13;5073011;28;20040;-77
2022/11/20 04:37:59;;;;;;;83.70;45.95;;;;;;;-5.69;100.00;99291.72;5072944;28;20024;-76
2022/11/20 04:40:24;;;;;;;89.78;48.10;;;;;;;-5.68;100.00;99302.75;5073203;28;20360;-76
2022/11/20 04:42:50;;;;;;;107.78;56.97;;;;;;;-5.67;100.00;99302.75;5073126;28;20491;-76
2022/11/20 04:45:15;;;;;;;104.38;57.13;;;;;;;-5.71;100.00;99303.53;5073109;28;20109;-76
2022/11/20 04:47:40;;;;;;;103.43;54.70;;;;;;;-5.77;100.00;99301.78;5073289;28;20020;-76
2022/11/20 04:50:06;;;;;;;80.57;48.05;;;;;;;-5.80;100.00;99296.66;5073112;28;20024;-76
2022/11/20 04:52:31;;;;;;;88.22;47.67;;;;;;;-5.83;100.00;99298.28;5073154;28;20063;-76
2022/11/20 04:54:57;;;;;;;90.35;48.65;;;;;;;-5.84;100.00;99294.91;5072836;28;20419;-76
2022/11/20 04:57:22;;;;;;;87.95;48.78;;;;;;;-5.77;100.00;99306.00;5072945;28;20490;-76
2022/11/20 04:59:47;;;;;;;104.32;53.83;;;;;;;-5.77;100.00;99306.00;5072915;28;20024;-76
2022/11/20 05:02:13;;;;;;;149.57;72.38;;;;;;;-5.77;100.00;99306.84;5072517;28;20024;-76
2022/11/20 05:04:38;;;;;;;131.20;65.07;;;;;;;-5.77;100.00;99300.94;5072310;28;20016;-76
2022/11/20 05:07:03;;;;;;;110.65;56.10;;;;;;;-5.82;100.00;99288.16;5072195;28;20020;-76
2022/11/20 05:09:29;;;;;;;107.55;52.63;;;;;;;-5.81;100.00;99294.13;5072829;28;20103;-76
2022/11/20 05:11:55;;;;;;;112.05;56.92;;;;;;;-5.81;100.00;99300.03;5072699;28;20024;-76
2022/11/20 05:14:20;;;;;;;103.43;51.95;;;;;;;-5.85;100.00;99290.69;5072408;28;20055;-76
2022/11/20 05:16:45;;;;;;;90.25;46.53;;;;;;;-5.89;100.00;99286.41;5072644;28;20031;-76
2022/11/20 05:19:11;;;;;;;90.43;46.20;;;;;;;-5.84;100.00;99283.91;5072255;28;20059;-76
2022/11/20 05:21:36;;;;;;;84.80;45.55;;;;;;;-5.96;100.00;99271.97;5072366;28;20028;-76
2022/11/20 05:24:02;;;;;;;91.60;44.85;;;;;;;-5.91;100.00;99282.97;5072085;28;20028;-76
2022/11/20 05:26:27;;;;;;;91.55;48.70;;;;;;;-5.92;100.00;99276.25;5054594;28;20074;-76
2022/11/20 05:28:52;;;;;;;93.97;48.42;;;;;;;-5.94;100.00;99265.25;5072215;28;20031;-76
2022/11/20 05:31:20;;;;;;;104.40;53.28;;;;;;;-5.90;100.00;99281.28;5072114;28;20115;-76
2022/11/20 05:33:46;;;;;;;100.30;53.22;;;;;;;-5.97;100.00;99261.81;5072382;28;20056;-77
2022/11/20 05:36:13;;;;;;;112.57;58.40;;;;;;;-5.90;100.00;99277.09;5071805;28;20059;-76
2022/11/20 05:38:39;;;;;;;115.00;60.47;;;;;;;-5.92;100.00;99267.78;5072278;28;20082;-76
2022/11/20 05:41:06;;;;;;;112.53;61.00;;;;;;;-5.90;100.00;99269.50;5072176;28;20055;-76
2022/11/20 05:43:35;;;;;;;96.63;55.33;;;;;;;-5.92;100.00;99262.72;5072086;28;20072;-76
2022/11/20 05:46:02;;;;;;;103.65;56.28;;;;;;;-5.90;100.00;99266.94;5071866;28;20027;-76
2022/11/20 05:48:27;;;;;;;81.43;47.10;;;;;;;-5.98;100.00;99244.88;5072055;28;20533;-76
2022/11/20 05:50:52;;;;;;;80.97;45.05;;;;;;;-5.95;100.00;99240.69;5071966;28;20028;-77
2022/11/20 05:53:18;;;;;;;83.22;47.08;;;;;;;-5.90;100.00;99255.94;5071711;28;20436;-76
2022/11/20 05:55:43;;;;;;;86.95;48.40;;;;;;;-5.92;100.00;99240.75;5072109;28;20052;-76
2022/11/20 05:58:08;;;;;;;76.20;42.45;;;;;;;-5.91;100.00;99249.16;5071763;28;20099;-76
2022/11/20 06:00:34;;;;;;;77.25;44.05;;;;;;;-5.99;100.00;99233.88;5072169;28;20414;-76
2022/11/20 06:02:59;;;;;;;71.63;42.72;;;;;;;-5.96;100.00;99244.06;5071933;28;20020;-76
2022/11/20 06:05:24;;;;;;;106.57;53.75;;;;;;;-5.93;100.00;99245.81;5071503;28;20025;-76
2022/11/20 06:07:50;;;;;;;129.15;66.35;;;;;;;-5.92;100.00;99255.09;5054065;28;20027;-76
2022/11/20 06:10:15;;;;;;;141.68;74.03;;;;;;;-5.94;100.00;99256.75;5071600;28;20040;-76
2022/11/20 06:12:40;;;;;;;122.38;65.55;;;;;;;-5.97;100.00;99249.13;5071937;28;20029;-77
2022/11/20 06:15:06;;;;;;;107.00;54.17;;;;;;;-5.97;100.00;99238.97;5071861;28;20012;-76
2022/11/20 06:17:31;;;;;;;93.43;53.10;;;;;;;-5.97;100.00;99246.59;5075808;28;20028;-76
2022/11/20 06:19:57;;;;;;;103.07;53.67;;;;;;;-5.94;100.00;99249.16;5075839;28;20021;-76
2022/11/20 06:22:22;;;;;;;91.88;54.17;;;;;;;-6.04;100.00;99236.34;5075578;28;20035;-76
2022/11/20 06:24:47;;;;;;;102.80;59.85;;;;;;;-6.01;100.00;99247.38;5075923;28;20019;-76
2022/11/20 06:27:13;;;;;;;129.85;69.72;;;;;;;-6.03;100.00;99250.72;5075898;28;20043;-76
2022/11/20 06:29:38;;;;;;;184.15;80.25;;;;;;;-6.10;100.00;99240.50;5075672;28;20418;-76
2022/11/20 06:32:04;;;;;;;156.65;72.90;;;;;;;-6.01;100.00;99252.44;5075444;28;20024;-76
2022/11/20 06:34:29;;;;;;;178.88;77.65;;;;;;;-5.96;100.00;99248.28;5075549;28;20133;-76
2022/11/20 06:36:54;;;;;;;184.95;76.70;;;;;;;-5.96;100.00;99233.06;5075824;28;20029;-76
2022/11/20 06:39:20;;;;;;;240.70;122.78;;;;;;;-5.79;100.00;99251.84;5075435;28;20372;-76
2022/11/20 06:41:45;;;;;;;193.80;101.93;;;;;;;-5.76;100.00;99244.28;5075459;28;20467;-76
2022/11/20 06:44:10;;;;;;;154.55;82.22;;;;;;;-5.85;100.00;99239.13;5075276;28;20046;-76
2022/11/20 06:46:36;;;;;;;184.75;95.72;;;;;;;-5.75;100.00;99245.13;5075421;28;20450;-76
2022/11/20 06:49:01;;;;;;;154.18;76.00;;;;;;;-5.81;100.00;99243.38;5075377;28;20020;-76
2022/11/20 06:51:27;;;;;;;149.27;76.85;;;;;;;-5.77;100.00;99248.50;5056957;28;20509;-76
2022/11/20 06:53:53;;;;;;;157.65;80.47;;;;;;;-5.64;100.00;99258.81;5075343;28;20024;-76
2022/11/20 06:56:18;;;;;;;163.63;78.18;;;;;;;-5.46;100.00;99260.72;5075126;28;20107;-76
2022/11/20 06:58:44;;;;;;;114.60;58.45;;;;;;;-5.29;100.00;99249.03;5075238;28;20024;-76
2022/11/20 07:01:12;;;;;;;133.02;69.05;;;;;;;-4.92;100.00;99257.03;5074925;28;20370;-76
2022/11/20 07:03:38;;;;;;;109.53;60.58;;;;;;;-4.67;100.00;99248.78;5075110;28;20025;-76
2022/11/20 07:06:04;;;;;;;99.93;53.05;;;;;;;-4.41;100.00;99248.97;5074908;28;20412;-76
2022/11/20 07:08:30;;;;;;;84.18;45.67;;;;;;;-4.30;99.70;99232.09;5075258;28;20020;-77
2022/11/20 07:11:03;;;;;;;96.13;53.35;;;;;;;-4.18;98.69;99238.94;5075085;28;20104;-77
2022/11/20 07:13:29;;;;;;;99.75;56.40;;;;;;;-4.03;97.59;99239.03;5074794;28;20112;-77
2022/11/20 07:15:58;;;;;;;80.60;48.47;;;;;;;-3.87;97.05;99231.50;5074812;28;20095;-77
2022/11/20 07:18:24;;;;;;;83.18;46.83;;;;;;;-3.68;96.53;99235.78;5074576;28;20031;-77
2022/11/20 07:20:49;;;;;;;81.55;49.15;;;;;;;-3.45;96.17;99232.50;5074910;28;20021;-76
2022/11/20 07:23:14;;;;;;;71.47;43.97;;;;;;;-3.18;95.47;99227.44;5074450;28;20504;-77
2022/11/20 07:25:40;;;;;;;70.50;41.17;;;;;;;-3.03;94.81;99214.75;5056816;28;20515;-77
2022/11/20 07:28:05;;;;;;;76.97;46.45;;;;;;;-2.85;94.42;99213.91;5074548;28;20025;-77
2022/11/20 07:30:30;;;;;;;72.32;41.65;;;;;;;-2.73;93.22;99213.06;5074630;28;20039;-77
2022/11/20 07:32:56;;;;;;;71.18;43.30;;;;;;;-2.54;92.23;99204.53;5074379;28;20048;-77
2022/11/20 07:35:23;;;;;;;74.65;45.80;;;;;;;-2.38;91.89;99209.63;5074423;28;20041;-77
2022/11/20 07:37:48;;;;;;;68.53;41.35;;;;;;;-2.20;91.43;99194.28;5074478;28;20493;-77
2022/11/20 07:40:15;;;;;;;90.30;53.10;;;;;;;-2.03;89.98;99202.72;5074249;28;20047;-77
2022/11/20 07:42:51;;;;;;;83.68;46.55;;;;;;;-1.84;89.15;99198.41;5074257;28;20024;-77
2022/11/20 07:45:17;;;;;;;89.55;49.60;;;;;;;-1.63;89.13;99197.47;5074042;28;20027;-77
2022/11/20 07:47:43;;;;;;;83.45;49.75;;;;;;;-1.54;88.90;99194.03;5074415;28;20020;-77
2022/11/20 07:50:08;;;;;;;70.85;41.50;;;;;;;-1.37;88.36;99199.91;5074137;28;20506;-77
2022/11/20 07:52:33;;;;;;;59.90;34.55;;;;;;;-1.26;88.13;99204.94;5074035;28;20025;-77
2022/11/20 07:54:59;;;;;;;57.95;33.20;;;;;;;-1.20;87.25;99194.69;5074158;28;20074;-77
2022/11/20 07:57:24;;;;;;;53.30;30.60;;;;;;;-1.18;85.78;99192.97;5073770;28;20070;-77
2022/11/20 07:59:49;;;;;;;57.05;33.38;;;;;;;-1.05;85.76;99188.63;5074008;28;20017;-77
2022/11/20 08:02:15;;;;;;;97.15;50.13;;;;;;;-0.89;85.69;99197.00;5073588;28;20040;-77
2022/11/20 08:04:40;;;;;;;66.00;38.85;;;;;;;-0.95;84.67;99200.47;5073745;28;20020;-77
2022/11/20 08:07:05;;;;;;;65.97;38.97;;;;;;;-1.01;84.01;99195.41;5055904;28;20468;-77
2022/11/20 08:09:31;;;;;;;91.93;48.30;;;;;;;-1.09;83.34;99200.59;5073973;28;20025;-77
2022/11/20 08:14:44;;;;;;;62.28;34.53;;;;;;;-1.10;83.77;99190.34;4996659;28;20057;-77
2022/11/20 08:17:10;;;;;;;59.08;34.50;;;;;;;-0.90;84.29;99208.09;4991746;28;20073;-78
2022/11/20 08:19:35;;;;;;;51.53;28.63;;;;;;;-0.81;83.87;99208.88;4991961;28;20132;-78
2022/11/20 08:22:00;;;;;;;48.03;29.60;;;;;;;-0.88;83.26;99204.69;4991980;28;20018;-78
2022/11/20 08:24:26;;;;;;;53.67;30.45;;;;;;;-0.83;83.66;99186.75;4991725;28;20034;-78
2022/11/20 08:26:51;;;;;;;47.33;28.02;;;;;;;-0.80;82.84;99190.13;4991977;28;20073;-78
2022/11/20 08:29:17;;;;;;;50.38;29.23;;;;;;;-0.82;82.96;99179.06;4991592;28;20030;-78
2022/11/20 08:31:42;;;;;;;49.85;29.50;;;;;;;-0.66;82.83;99191.72;4991684;28;20046;-78
2022/11/20 08:34:08;;;;;;;49.67;26.92;;;;;;;-0.79;82.55;99167.97;4999498;28;20045;-78
2022/11/20 08:36:35;;;;;;;51.92;29.27;;;;;;;-0.67;82.31;99192.59;5030823;28;20072;-78
2022/11/20 08:39:01;;;;;;;53.35;29.95;;;;;;;-0.76;82.26;99180.72;5030394;28;20060;-78
2022/11/20 08:41:26;;;;;;;50.00;28.73;;;;;;;-0.89;82.33;99179.97;5030661;28;20080;-78
2022/11/20 08:43:57;;;;;;;48.85;29.45;;;;;;;-0.98;82.56;99166.41;5030699;28;20040;-78
2022/11/20 08:46:32;;;;;;;54.53;29.52;;;;;;;-1.02;82.61;99179.22;5023351;28;20465;-79
2022/11/20 08:48:58;;;;;;;45.95;28.20;;;;;;;-1.02;81.72;99183.47;5011038;28;20022;-78
2022/11/20 08:51:23;;;;;;;47.55;28.02;;;;;;;-1.09;82.30;99172.47;5025705;28;20036;-79
2022/11/20 08:53:48;;;;;;;46.33;27.00;;;;;;;-1.09;82.51;99174.19;5053008;28;20032;-79
2022/11/20 08:56:14;;;;;;;60.17;35.33;;;;;;;-1.07;82.86;99178.41;5052630;28;20021;-79
2022/11/20 08:58:40;;;;;;;57.47;31.92;;;;;;;-1.11;83.11;99176.72;5052813;28;20032;-79
2022/11/20 09:01:05;;;;;;;57.72;32.55;;;;;;;-1.15;82.82;99159.72;5052792;28;20528;-79
2022/11/20 09:03:30;;;;;;;56.85;34.75;;;;;;;-1.22;83.63;99158.09;5052684;28;20073;-79
2022/11/20 09:06:01;;;;;;;49.72;31.38;;;;;;;-1.20;83.44;99170.84;5052795;28;20017;-79
2022/11/20 09:08:27;;;;;;;41.63;27.58;;;;;;;-1.19;83.37;99170.81;5052531;28;20025;-78
2022/11/20 09:10:54;;;;;;;46.58;27.73;;;;;;;-1.23;83.34;99160.63;5052624;28;20087;-78
2022/11/20 09:13:23;;;;;;;50.17;29.77;;;;;;;-1.14;83.58;99174.19;5052326;28;20120;-79
2022/11/20 09:16:07;;;;;;;61.53;35.75;;;;;;;-1.13;83.88;99175.06;5052698;28;20029;-79
2022/11/20 09:18:33;;;;;;;51.85;31.50;;;;;;;-1.19;83.31;99165.72;5052354;28;20017;-79
2022/11/20 09:21:00;;;;;;;58.47;33.85;;;;;;;-1.20;83.80;99158.91;5052469;28;20054;-79
2022/11/20 09:23:26;;;;;;;62.85;34.53;;;;;;;-1.18;83.69;99172.53;5052080;28;20349;-79
2022/11/20 09:25:55;;;;;;;61.70;35.05;;;;;;;-1.22;84.12;99160.63;5052603;28;20020;-79
2022/11/20 09:28:20;;;;;;;63.67;36.38;;;;;;;-1.28;83.37;99160.66;5052189;28;20024;-79
2022/11/20 09:30:45;;;;;;;67.10;38.13;;;;;;;-1.25;84.12;99163.22;5052319;28;20055;-79
2022/11/20 09:33:11;;;;;;;68.25;39.42;;;;;;;-1.31;84.95;99160.69;5052358;28;20025;-84
2022/11/20 09:35:36;;;;;;;57.95;34.78;;;;;;;-1.25;85.22;99165.75;5035635;28;20391;-77
2022/11/20 09:38:08;;;;;;;123.30;62.88;;;;;;;-1.23;85.59;99164.03;5032088;28;20498;-77
2022/11/20 09:40:35;;;;;;;103.10;54.72;;;;;;;-1.23;85.36;99161.47;5032276;28;20025;-77
2022/11/20 09:43:12;;;;;;;61.33;36.40;;;;;;;-1.20;85.87;99156.34;5032422;28;20022;-77
2022/11/20 09:45:49;;;;;;;59.08;35.92;;;;;;;-1.11;85.83;99168.22;5032341;28;20338;-77
2022/11/20 09:48:43;;;;;;;65.05;37.90;;;;;;;-1.10;86.15;99165.63;5032128;28;20024;-77
2022/11/20 09:51:18;;;;;;;61.53;37.17;;;;;;;-1.04;86.33;99160.50;5031694;28;20025;-77
2022/11/20 09:53:52;;;;;;;56.55;33.75;;;;;;;-1.01;85.82;99145.16;5032130;28;20071;-79
2022/11/20 09:56:20;;;;;;;59.97;34.53;;;;;;;-1.00;86.04;99135.75;5031585;28;20071;-78
2022/11/20 09:58:50;;;;;;;77.18;43.65;;;;;;;-1.01;85.58;99132.38;5031863;28;20512;-79
2022/11/20 10:01:18;;;;;;;66.25;38.35;;;;;;;-1.03;85.81;99123.84;5031945;28;20377;-78
2022/11/20 10:03:44;;;;;;;72.72;41.75;;;;;;;-0.90;85.62;99139.09;5032054;28;20532;-78
2022/11/20 10:06:16;;;;;;;72.82;44.30;;;;;;;-0.95;85.98;99128.91;5031983;28;20109;-80
2022/11/20 10:09:07;;;;;;;75.80;44.22;;;;;;;-0.82;85.93;99139.88;5031882;28;20112;-79
2022/11/20 10:11:47;;;;;;;70.65;40.15;;;;;;;-0.80;85.41;99133.88;5028648;28;20140;-80
2022/11/20 10:14:46;;;;;;;68.55;39.28;;;;;;;-0.77;86.15;99123.59;5031958;28;20021;-80
2022/11/20 10:17:43;;;;;;;71.00;42.60;;;;;;;-0.79;84.92;99101.50;5031699;28;20540;-80
2022/11/20 10:20:14;;;;;;;88.07;49.80;;;;;;;-0.73;84.80;99101.41;5032212;28;20026;-79
2022/11/20 10:23:17;;;;;;;97.60;57.63;;;;;;;-0.71;85.18;99096.31;5031459;28;20027;-80
2022/11/20 10:26:11;;;;;;;79.93;48.88;;;;;;;-0.59;85.26;99111.50;5031575;28;20361;-79
2022/11/20 10:28:48;;;;;;;74.95;44.80;;;;;;;-0.57;84.86;99108.06;4951014;29;20067;-79
2022/11/20 10:31:36;;;;;;;77.75;46.47;;;;;;;-0.54;85.37;99115.72;4951307;29;20056;-78
2022/11/20 10:34:12;;;;;;;72.20;40.97;;;;;;;-0.51;84.46;99114.81;4960429;28;20041;-78
2022/11/20 10:37:12;;;;;;;66.75;40.42;;;;;;;-0.49;84.59;99102.88;5009252;28;20393;-78
2022/11/20 10:39:56;;;;;;;62.97;36.95;;;;;;;-0.43;84.66;99118.16;4969739;28;20043;-79
2022/11/20 10:42:37;;;;;;;64.13;37.33;;;;;;;-0.43;84.07;99097.69;4970324;28;20037;-78
2022/11/20 10:45:33;;;;;;;64.03;37.92;;;;;;;-0.37;84.53;99101.91;4970474;28;20031;-78
2022/11/20 10:48:07;;;;;;;63.42;38.15;;;;;;;-0.43;84.06;99099.41;4970452;28;20023;-79
2022/11/20 10:50:35;;;;;;;68.32;41.25;;;;;;;-0.41;83.84;99095.13;4970405;28;20039;-78
2022/11/20 10:53:11;;;;;;;59.65;35.75;;;;;;;-0.45;83.09;99090.91;4970229;28;20241;-78
2022/11/20 10:56:02;;;;;;;68.93;41.40;;;;;;;-0.42;82.72;99086.63;4953894;28;20035;-78
2022/11/20 10:58:56;;;;;;;60.05;36.03;;;;;;;-0.41;82.86;99083.19;4954008;28;20058;-78
2022/11/20 11:01:26;;;;;;;53.20;32.15;;;;;;;-0.51;82.02;99074.78;4970618;28;20030;-78
2022/11/20 11:03:52;;;;;;;61.58;37.17;;;;;;;-0.48;81.77;99071.31;4973823;28;20378;-78
2022/11/20 11:06:42;;;;;;;68.32;39.58;;;;;;;-0.45;81.73;99075.56;5025675;28;20176;-78
2022/11/20 11:09:16;;;;;;;62.35;37.00;;;;;;;-0.47;82.15;99075.56;5032517;28;20033;-79
2022/11/20 11:11:42;;;;;;;62.00;35.92;;;;;;;-0.60;81.49;99062.06;5032296;28;20029;-78
2022/11/20 11:14:09;;;;;;;84.70;47.53;;;;;;;-0.63;82.46;99071.47;5032444;28;20440;-78
2022/11/20 11:16:35;;;;;;;74.68;39.97;;;;;;;-0.56;82.72;99068.84;5064490;28;20120;-78
2022/11/20 11:19:11;;;;;;;64.75;36.08;;;;;;;-0.53;82.61;99066.25;5074952;28;20105;-78
2022/11/20 11:21:43;;;;;;;57.60;32.45;;;;;;;-0.54;82.10;99067.13;5074584;28;20137;-78